Time;durP1;ratioP1;P1;durP2;ratioP2;P2;SDS_P1;SDS_P2;PMS_P1;PMS_P2;Temp;Humidity;BMP_temperature;BMP_pressure;BME280_temperature;BME280_humidity;BME280_pressure;Samples;Min_cycle;Max_cycle;Signal;HPM_P1;HPM_P2
2022/09/09 00:01:31;;;;;;;0.00;0.00;;;14.90;99.90;;;;;;5043695;22;20244;-71
2022/09/09 00:04:06;;;;;;;0.00;0.00;;;15.00;99.90;;;;;;5083944;28;20220;-72
2022/09/09 00:06:43;;;;;;;0.00;0.00;;;14.90;99.90;;;;;;5087857;28;20190;-71
2022/09/09 00:09:16;;;;;;;0.00;0.00;;;14.90;99.90;;;;;;5066660;28;20219;-71
2022/09/09 00:11:48;;;;;;;0.00;0.00;;;14.90;99.90;;;;;;5084129;28;20209;-72
2022/09/09 00:14:28;;;;;;;0.00;0.00;;;14.90;99.90;;;;;;5057344;28;20195;-72
2022/09/09 00:17:01;;;;;;;0.10;0.10;;;14.80;99.90;;;;;;5068661;28;20205;-72
2022/09/09 00:19:39;;;;;;;0.08;0.08;;;14.80;99.90;;;;;;5062084;28;20194;-73
2022/09/09 00:22:17;;;;;;;0.10;0.10;;;14.80;99.90;;;;;;5066991;28;20688;-72
2022/09/09 00:24:49;;;;;;;0.08;0.08;;;14.80;99.90;;;;;;5055794;28;20658;-71
2022/09/09 00:27:26;;;;;;;0.10;0.10;;;14.80;99.90;;;;;;5064302;28;20186;-73
2022/09/09 00:29:58;;;;;;;0.00;0.00;;;14.80;99.90;;;;;;5064837;28;20204;-71
2022/09/09 00:32:30;;;;;;;0.00;0.00;;;14.90;99.90;;;;;;5045831;28;20237;-71
2022/09/09 00:35:03;;;;;;;0.00;0.00;;;14.90;99.90;;;;;;5054054;28;20198;-73
2022/09/09 00:37:33;;;;;;;0.00;0.00;;;14.90;99.90;;;;;;5045405;28;20198;-72
2022/09/09 00:40:17;;;;;;;0.00;0.00;;;14.80;99.90;;;;;;5064867;28;20201;-73
2022/09/09 00:42:46;;;;;;;0.00;0.00;;;14.80;99.90;;;;;;5071302;28;20658;-72
2022/09/09 00:45:34;;;;;;;0.00;0.00;;;14.90;99.90;;;;;;5073888;28;20194;-72
2022/09/09 00:48:08;;;;;;;0.00;0.00;;;14.90;99.90;;;;;;5043098;28;20213;-73
2022/09/09 00:50:47;;;;;;;0.00;0.00;;;14.90;99.90;;;;;;5084828;28;20216;-72
2022/09/09 00:53:29;;;;;;;0.00;0.00;;;14.80;99.90;;;;;;5041286;28;20577;-72
2022/09/09 00:56:10;;;;;;;0.10;0.10;;;14.80;99.90;;;;;;5059411;28;20585;-72
2022/09/09 00:58:38;;;;;;;0.00;0.00;;;14.80;99.90;;;;;;5071304;28;20194;-73
2022/09/09 01:01:10;;;;;;;0.00;0.00;;;14.70;99.90;;;;;;5037727;28;20254;-73
2022/09/09 01:03:45;;;;;;;0.00;0.00;;;14.70;99.90;;;;;;5053356;28;20245;-73
2022/09/09 01:06:17;;;;;;;0.00;0.00;;;14.60;99.90;;;;;;5043327;28;20229;-72
2022/09/09 01:09:05;;;;;;;0.00;0.00;;;14.50;99.90;;;;;;5037215;28;20197;-71
2022/09/09 01:11:43;;;;;;;0.00;0.00;;;14.50;99.90;;;;;;5040387;28;20222;-70
2022/09/09 01:14:25;;;;;;;0.00;0.00;;;14.50;99.90;;;;;;5049885;28;20201;-72
2022/09/09 01:16:57;;;;;;;0.10;0.10;;;14.50;99.90;;;;;;5037234;28;20290;-72
2022/09/09 01:19:36;;;;;;;0.00;0.00;;;14.50;99.90;;;;;;5039490;28;20205;-72
2022/09/09 01:22:16;;;;;;;0.00;0.00;;;14.50;99.90;;;;;;5044428;28;20657;-72
2022/09/09 01:25:08;;;;;;;0.00;0.00;;;14.50;99.90;;;;;;5046464;28;20205;-72
2022/09/09 01:28:11;;;;;;;0.00;0.00;;;14.40;99.90;;;;;;5036652;28;20676;-72
2022/09/09 01:30:41;;;;;;;0.00;0.00;;;14.50;99.90;;;;;;5041753;28;20224;-72
2022/09/09 01:33:15;;;;;;;0.10;0.10;;;14.50;99.90;;;;;;5041611;28;20194;-73
2022/09/09 01:35:50;;;;;;;0.00;0.00;;;14.60;99.90;;;;;;5035475;28;20240;-73
2022/09/09 01:38:19;;;;;;;0.00;0.00;;;14.60;99.90;;;;;;5052981;28;20292;-72
2022/09/09 01:40:52;;;;;;;0.00;0.00;;;14.60;99.90;;;;;;5042667;28;20557;-71
2022/09/09 01:43:27;;;;;;;0.00;0.00;;;14.60;99.90;;;;;;5042062;28;20584;-72
2022/09/09 01:45:59;;;;;;;0.00;0.00;;;14.50;99.90;;;;;;5052871;28;20204;-71
2022/09/09 01:48:28;;;;;;;0.00;0.00;;;14.50;99.90;;;;;;5053338;28;20194;-71
2022/09/09 01:51:03;;;;;;;0.00;0.00;;;14.40;99.90;;;;;;5034770;28;20221;-72
2022/09/09 01:53:32;;;;;;;0.05;0.05;;;14.40;99.90;;;;;;5056224;28;20218;-71
2022/09/09 01:56:08;;;;;;;0.05;0.05;;;14.40;99.90;;;;;;5035280;28;20599;-72
2022/09/09 01:58:53;;;;;;;0.00;0.00;;;14.40;99.90;;;;;;5053794;28;20193;-72
2022/09/09 02:01:32;;;;;;;0.00;0.00;;;14.50;99.90;;;;;;5046525;28;20234;-72
2022/09/09 02:04:09;;;;;;;0.00;0.00;;;14.50;99.90;;;;;;5041538;28;20214;-72
2022/09/09 02:06:40;;;;;;;0.10;0.10;;;14.60;99.90;;;;;;5035205;28;20198;-72
2022/09/09 02:09:24;;;;;;;0.00;0.00;;;14.50;99.90;;;;;;5042316;28;20197;-73
2022/09/09 02:12:00;;;;;;;0.00;0.00;;;14.50;99.90;;;;;;5049683;28;20226;-71
2022/09/09 02:14:43;;;;;;;0.10;0.10;;;14.50;99.90;;;;;;5051180;28;20194;-71
2022/09/09 02:17:14;;;;;;;0.10;0.10;;;14.50;99.90;;;;;;5045059;28;20197;-71
2022/09/09 02:20:02;;;;;;;0.00;0.00;;;14.50;99.90;;;;;;5045322;28;20264;-72
2022/09/09 02:22:43;;;;;;;0.10;0.10;;;14.40;99.90;;;;;;5033783;28;20688;-70
2022/09/09 02:25:16;;;;;;;0.00;0.00;;;14.50;99.90;;;;;;5033942;28;20209;-71
2022/09/09 02:27:48;;;;;;;0.00;0.00;;;14.40;99.90;;;;;;5033965;28;20292;-71
2022/09/09 02:30:19;;;;;;;0.00;0.00;;;14.50;99.90;;;;;;5052982;28;20194;-71
2022/09/09 02:33:02;;;;;;;0.00;0.00;;;14.50;99.90;;;;;;5033315;28;20198;-71
2022/09/09 02:35:49;;;;;;;0.00;0.00;;;14.50;99.90;;;;;;5037026;28;20283;-71
2022/09/09 02:38:22;;;;;;;0.00;0.00;;;14.40;99.90;;;;;;5033611;28;20641;-71
2022/09/09 02:41:08;;;;;;;0.00;0.00;;;14.40;99.90;;;;;;5051621;28;20595;-71
2022/09/09 02:43:37;;;;;;;0.00;0.00;;;14.30;99.90;;;;;;5051340;28;20267;-72
2022/09/09 02:46:25;;;;;;;0.00;0.00;;;14.40;99.90;;;;;;5071216;28;20215;-73
2022/09/09 02:49:01;;;;;;;0.00;0.00;;;14.30;99.90;;;;;;5056928;28;20559;-71
2022/09/09 02:51:41;;;;;;;0.05;0.05;;;14.30;99.90;;;;;;5053732;28;20221;-72
2022/09/09 02:54:17;;;;;;;0.00;0.00;;;14.30;99.90;;;;;;5038011;28;20240;-71
2022/09/09 02:56:52;;;;;;;0.00;0.00;;;14.30;99.90;;;;;;5056811;28;20188;-72
2022/09/09 02:59:23;;;;;;;0.00;0.00;;;14.30;99.90;;;;;;5038630;28;20204;-73
2022/09/09 03:01:54;;;;;;;0.03;0.03;;;14.30;99.90;;;;;;5059406;28;20232;-71
2022/09/09 03:04:25;;;;;;;0.00;0.00;;;14.30;99.90;;;;;;5065194;28;20746;-70
2022/09/09 03:06:53;;;;;;;0.00;0.00;;;14.30;99.90;;;;;;5058025;28;20213;-71
2022/09/09 03:09:22;;;;;;;0.00;0.00;;;14.30;99.90;;;;;;5053972;28;20206;-71
2022/09/09 03:11:51;;;;;;;0.00;0.00;;;14.20;99.90;;;;;;5053179;28;20255;-71
2022/09/09 03:14:21;;;;;;;0.10;0.10;;;14.30;99.90;;;;;;5051479;28;20193;-72
2022/09/09 03:16:50;;;;;;;0.00;0.00;;;14.30;99.90;;;;;;5051499;28;20197;-73
2022/09/09 03:19:21;;;;;;;0.10;0.10;;;14.30;99.90;;;;;;5033500;28;20298;-72
2022/09/09 03:21:50;;;;;;;0.00;0.00;;;14.30;99.90;;;;;;5032326;28;20225;-71
2022/09/09 03:24:19;;;;;;;0.10;0.10;;;14.40;99.90;;;;;;5054153;28;20229;-71
2022/09/09 03:26:47;;;;;;;0.00;0.00;;;14.40;99.90;;;;;;5039959;28;20202;-73
2022/09/09 03:29:18;;;;;;;0.10;0.10;;;14.30;99.90;;;;;;5033292;28;20206;-72
2022/09/09 03:31:46;;;;;;;0.05;0.05;;;14.30;99.90;;;;;;5049058;28;20619;-72
2022/09/09 03:34:15;;;;;;;0.00;0.00;;;14.40;99.90;;;;;;5034702;28;20218;-71
2022/09/09 03:36:44;;;;;;;0.00;0.00;;;14.30;99.90;;;;;;5053724;28;20206;-72
2022/09/09 03:39:14;;;;;;;0.10;0.10;;;14.30;99.90;;;;;;5034946;28;20203;-72
2022/09/09 03:41:45;;;;;;;0.00;0.00;;;14.40;99.90;;;;;;5051573;28;20313;-72
2022/09/09 03:44:13;;;;;;;0.00;0.00;;;14.30;99.90;;;;;;5034449;28;20226;-72
2022/09/09 03:46:42;;;;;;;0.00;0.00;;;14.30;99.90;;;;;;5039392;28;20286;-72
2022/09/09 03:49:11;;;;;;;0.03;0.03;;;14.30;99.90;;;;;;5047687;28;20202;-71
2022/09/09 03:51:40;;;;;;;0.00;0.00;;;14.30;99.90;;;;;;5038633;28;20222;-71
2022/09/09 03:54:11;;;;;;;0.00;0.00;;;14.30;99.90;;;;;;5039646;28;20191;-71
2022/09/09 03:56:41;;;;;;;0.10;0.10;;;14.30;99.90;;;;;;5051905;28;20194;-72
2022/09/09 03:59:11;;;;;;;0.10;0.10;;;14.40;99.90;;;;;;5054317;28;20202;-71
2022/09/09 04:01:39;;;;;;;0.00;0.00;;;14.30;99.90;;;;;;5070425;28;20241;-71
2022/09/09 04:04:08;;;;;;;0.00;0.00;;;14.30;99.90;;;;;;5056723;28;20223;-71
2022/09/09 04:06:36;;;;;;;0.10;0.10;;;14.40;99.90;;;;;;5060801;28;20202;-72
2022/09/09 04:09:04;;;;;;;0.00;0.00;;;14.30;99.90;;;;;;5057395;28;20384;-73
2022/09/09 04:11:35;;;;;;;0.00;0.00;;;14.30;99.90;;;;;;5071591;28;20717;-71
2022/09/09 04:14:04;;;;;;;0.10;0.10;;;14.30;99.90;;;;;;5064880;28;20665;-73
2022/09/09 04:16:32;;;;;;;0.10;0.10;;;14.20;99.90;;;;;;5051458;28;20189;-72
2022/09/09 04:19:01;;;;;;;0.00;0.00;;;14.30;99.90;;;;;;5055353;28;20251;-72
2022/09/09 04:21:29;;;;;;;0.10;0.10;;;14.20;99.90;;;;;;5056155;28;20218;-72
2022/09/09 04:23:57;;;;;;;0.00;0.00;;;14.30;99.90;;;;;;5048781;28;20232;-73
2022/09/09 04:26:26;;;;;;;0.00;0.00;;;14.30;99.90;;;;;;5052476;28;20565;-72
2022/09/09 04:28:55;;;;;;;0.00;0.00;;;14.30;99.90;;;;;;5049164;28;20739;-72
2022/09/09 04:31:24;;;;;;;0.00;0.00;;;14.40;99.90;;;;;;5048279;28;20584;-72
2022/09/09 04:33:54;;;;;;;0.00;0.00;;;14.40;99.90;;;;;;5035732;28;20204;-72
2022/09/09 04:36:23;;;;;;;0.00;0.00;;;14.40;99.90;;;;;;5051754;28;20202;-72
2022/09/09 04:38:55;;;;;;;0.00;0.00;;;14.50;99.90;;;;;;5062757;28;20197;-73
2022/09/09 04:41:23;;;;;;;0.00;0.00;;;14.50;99.90;;;;;;5055408;28;20248;-72
2022/09/09 04:43:54;;;;;;;0.00;0.00;;;14.60;99.90;;;;;;5035644;28;20728;-72
2022/09/09 04:46:23;;;;;;;0.00;0.00;;;14.60;99.90;;;;;;5037156;28;20230;-71
2022/09/09 04:48:52;;;;;;;0.10;0.10;;;14.70;99.90;;;;;;5042993;28;20220;-73
2022/09/09 04:51:21;;;;;;;0.10;0.10;;;14.70;99.90;;;;;;5045406;28;20224;-71
2022/09/09 04:53:50;;;;;;;0.00;0.00;;;14.70;99.90;;;;;;5044848;28;20547;-71
2022/09/09 04:56:19;;;;;;;0.00;0.00;;;14.70;99.90;;;;;;5045777;28;20212;-71
2022/09/09 04:58:53;;;;;;;0.00;0.00;;;14.70;99.90;;;;;;5042082;28;20296;-72
2022/09/09 05:01:26;;;;;;;0.00;0.00;;;14.80;99.90;;;;;;5043762;28;20320;-73
2022/09/09 05:04:01;;;;;;;0.00;0.00;;;14.80;99.90;;;;;;5042604;28;20559;-71
2022/09/09 05:06:31;;;;;;;0.00;0.00;;;14.80;99.90;;;;;;5051992;28;20205;-71
2022/09/09 05:09:01;;;;;;;0.10;0.10;;;14.90;99.90;;;;;;5044274;28;20210;-72
2022/09/09 05:11:32;;;;;;;0.10;0.10;;;14.80;99.90;;;;;;5044725;28;20230;-71
2022/09/09 05:14:05;;;;;;;0.10;0.10;;;14.80;99.90;;;;;;5044799;28;20256;-70
2022/09/09 05:16:35;;;;;;;0.10;0.10;;;14.90;99.90;;;;;;5045387;28;20582;-71
2022/09/09 05:19:03;;;;;;;0.00;0.00;;;14.80;99.90;;;;;;5044608;28;20193;-72
2022/09/09 05:21:43;;;;;;;0.00;0.00;;;14.70;99.90;;;;;;5051893;28;20312;-72
2022/09/09 05:24:12;;;;;;;0.00;0.00;;;14.70;99.90;;;;;;5046015;28;20213;-71
2022/09/09 05:26:41;;;;;;;0.00;0.00;;;14.70;99.90;;;;;;5044442;28;20197;-73
2022/09/09 05:29:08;;;;;;;0.00;0.00;;;14.80;99.90;;;;;;5045198;28;20842;-73
2022/09/09 05:31:38;;;;;;;0.00;0.00;;;14.80;99.90;;;;;;5066286;28;20260;-74
2022/09/09 05:34:11;;;;;;;0.08;0.08;;;14.80;99.90;;;;;;5046078;28;20260;-73
2022/09/09 05:36:39;;;;;;;0.00;0.00;;;14.80;99.90;;;;;;5044183;28;20293;-74
2022/09/09 05:39:08;;;;;;;0.03;0.03;;;14.80;99.90;;;;;;5042451;28;20202;-74
2022/09/09 05:41:36;;;;;;;0.00;0.00;;;14.90;99.90;;;;;;5061254;28;20278;-74
2022/09/09 05:44:05;;;;;;;0.00;0.00;;;14.90;99.90;;;;;;5044504;28;20198;-74
2022/09/09 05:46:39;;;;;;;0.00;0.00;;;15.00;99.90;;;;;;5042923;28;20202;-73
2022/09/09 05:49:08;;;;;;;0.00;0.00;;;15.10;99.90;;;;;;5044949;28;20198;-73
2022/09/09 05:51:37;;;;;;;0.00;0.00;;;15.10;99.90;;;;;;5050511;28;20221;-74
2022/09/09 05:54:10;;;;;;;0.10;0.10;;;15.10;99.90;;;;;;5063711;28;20206;-74
2022/09/09 05:56:42;;;;;;;0.00;0.00;;;15.10;99.90;;;;;;5045768;28;20206;-73
2022/09/09 05:59:11;;;;;;;0.00;0.00;;;15.20;99.90;;;;;;5063219;28;20285;-73
2022/09/09 06:01:40;;;;;;;0.00;0.00;;;15.30;99.90;;;;;;5055866;23;20709;-73
2022/09/09 06:04:15;;;;;;;0.08;0.08;;;15.40;99.90;;;;;;5019909;28;20199;-74
2022/09/09 06:06:43;;;;;;;0.00;0.00;;;15.40;99.90;;;;;;5018362;28;20685;-73
2022/09/09 06:09:15;;;;;;;0.00;0.00;;;15.50;99.90;;;;;;5019814;28;20590;-74
2022/09/09 06:11:44;;;;;;;0.00;0.00;;;15.50;99.90;;;;;;5019395;28;20222;-73
2022/09/09 06:14:12;;;;;;;0.00;0.00;;;15.50;99.90;;;;;;5019011;28;20211;-74
2022/09/09 06:16:43;;;;;;;0.00;0.00;;;15.50;99.90;;;;;;5018646;28;20285;-73
2022/09/09 06:19:21;;;;;;;0.00;0.00;;;15.60;99.90;;;;;;5021061;28;20213;-74
2022/09/09 06:21:50;;;;;;;0.00;0.00;;;15.60;99.90;;;;;;5020988;28;20346;-73
2022/09/09 06:24:19;;;;;;;0.00;0.00;;;15.70;99.90;;;;;;5019792;28;20580;-74
2022/09/09 06:26:48;;;;;;;0.00;0.00;;;15.80;99.90;;;;;;5020233;28;20225;-75
2022/09/09 06:29:21;;;;;;;0.00;0.00;;;15.90;99.90;;;;;;5020040;28;20199;-76
2022/09/09 06:31:50;;;;;;;0.00;0.00;;;15.90;99.90;;;;;;5019155;28;20249;-74
2022/09/09 06:34:21;;;;;;;0.00;0.00;;;15.90;99.90;;;;;;5019128;28;20200;-74
2022/09/09 06:36:53;;;;;;;0.00;0.00;;;16.00;99.90;;;;;;5018708;28;20756;-74
2022/09/09 06:39:22;;;;;;;0.00;0.00;;;16.00;99.90;;;;;;5019236;28;20805;-74
2022/09/09 06:41:52;;;;;;;0.00;0.00;;;16.00;99.90;;;;;;5020409;28;21139;-74
2022/09/09 06:44:45;;;;;;;0.00;0.00;;;16.00;99.90;;;;;;5020462;28;20747;-74
2022/09/09 06:47:22;;;;;;;0.00;0.00;;;16.10;99.90;;;;;;5020128;28;20199;-74
2022/09/09 06:49:51;;;;;;;0.00;0.00;;;16.10;99.90;;;;;;5019512;28;20203;-74
2022/09/09 06:52:19;;;;;;;0.00;0.00;;;16.20;99.90;;;;;;5019926;28;20226;-73
2022/09/09 06:54:47;;;;;;;0.00;0.00;;;16.20;99.90;;;;;;5021226;28;20206;-73
2022/09/09 06:57:16;;;;;;;0.00;0.00;;;16.10;99.90;;;;;;5020191;28;20605;-74
2022/09/09 07:00:07;;;;;;;0.00;0.00;;;16.20;99.90;;;;;;5020456;28;20207;-74
2022/09/09 07:02:39;;;;;;;0.00;0.00;;;16.30;99.90;;;;;;5020293;28;20702;-74
2022/09/09 07:05:09;;;;;;;0.00;0.00;;;16.40;99.90;;;;;;5019838;28;20689;-74
2022/09/09 07:07:38;;;;;;;0.00;0.00;;;16.50;99.90;;;;;;5019264;28;20843;-74
2022/09/09 07:10:07;;;;;;;0.00;0.00;;;16.60;99.90;;;;;;5019200;28;20199;-74
2022/09/09 07:12:37;;;;;;;0.00;0.00;;;16.70;99.90;;;;;;5019589;28;20227;-74
2022/09/09 07:15:06;;;;;;;0.00;0.00;;;16.60;99.90;;;;;;5020314;28;20244;-74
2022/09/09 07:17:35;;;;;;;0.00;0.00;;;16.70;99.90;;;;;;5018689;28;20210;-74
2022/09/09 07:20:04;;;;;;;0.00;0.00;;;16.70;99.90;;;;;;5025063;28;20203;-74
2022/09/09 07:22:32;;;;;;;0.00;0.00;;;16.70;99.90;;;;;;5048103;28;20238;-75
2022/09/09 07:25:02;;;;;;;0.00;0.00;;;16.70;99.90;;;;;;5021179;28;20218;-75
2022/09/09 07:27:30;;;;;;;0.00;0.00;;;16.80;99.90;;;;;;5023915;28;20199;-74
2022/09/09 07:29:58;;;;;;;0.00;0.00;;;16.90;99.90;;;;;;5023770;28;20257;-73
2022/09/09 07:32:26;;;;;;;0.00;0.00;;;17.00;99.90;;;;;;5024577;28;20685;-74
2022/09/09 07:34:56;;;;;;;0.00;0.00;;;17.10;99.90;;;;;;5021840;28;21521;-73
2022/09/09 07:37:24;;;;;;;0.00;0.00;;;17.20;99.90;;;;;;5022700;28;20270;-75
2022/09/09 07:39:53;;;;;;;0.00;0.00;;;17.30;99.90;;;;;;5022423;28;20221;-73
2022/09/09 07:42:21;;;;;;;0.00;0.00;;;17.40;99.90;;;;;;5022537;28;20226;-74
2022/09/09 07:44:49;;;;;;;0.00;0.00;;;17.50;99.90;;;;;;5023909;28;20222;-74
2022/09/09 07:47:17;;;;;;;0.00;0.00;;;17.60;99.90;;;;;;5021943;28;20231;-75
2022/09/09 07:49:49;;;;;;;0.00;0.00;;;17.70;99.90;;;;;;5020676;28;20262;-74
2022/09/09 07:52:23;;;;;;;0.00;0.00;;;17.90;99.90;;;;;;5022526;28;20224;-75
2022/09/09 07:54:56;;;;;;;0.00;0.00;;;17.90;99.90;;;;;;5022865;28;20286;-75
2022/09/09 07:57:24;;;;;;;0.00;0.00;;;18.00;99.90;;;;;;5022809;28;20274;-75
2022/09/09 07:59:53;;;;;;;0.00;0.00;;;18.00;99.90;;;;;;5024612;28;20211;-73
2022/09/09 08:02:21;;;;;;;0.00;0.00;;;18.00;99.90;;;;;;5019533;28;20231;-74
2022/09/09 08:04:51;;;;;;;0.00;0.00;;;18.00;99.90;;;;;;5023225;28;20213;-74
2022/09/09 08:07:21;;;;;;;0.00;0.00;;;17.90;99.90;;;;;;5020285;28;20223;-76
2022/09/09 08:09:55;;;;;;;0.00;0.00;;;17.90;99.90;;;;;;5022338;28;20258;-73
2022/09/09 08:12:27;;;;;;;0.00;0.00;;;17.90;99.90;;;;;;5020950;28;20250;-73
2022/09/09 08:14:56;;;;;;;0.00;0.00;;;17.90;99.90;;;;;;5023337;28;21007;-75
2022/09/09 08:17:28;;;;;;;0.00;0.00;;;17.90;99.90;;;;;;5023094;28;20285;-74
2022/09/09 08:20:04;;;;;;;0.00;0.00;;;18.00;99.90;;;;;;5023431;28;20226;-73
2022/09/09 08:22:34;;;;;;;0.00;0.00;;;18.10;99.90;;;;;;5021834;28;20220;-75
2022/09/09 08:25:06;;;;;;;0.00;0.00;;;18.20;99.90;;;;;;5022554;28;20309;-74
2022/09/09 08:27:37;;;;;;;0.00;0.00;;;18.30;99.90;;;;;;5025548;28;20218;-74
2022/09/09 08:30:06;;;;;;;0.00;0.00;;;18.30;99.90;;;;;;5029484;28;20195;-73
2022/09/09 08:32:35;;;;;;;0.00;0.00;;;18.50;99.90;;;;;;5032818;28;20223;-76
2022/09/09 08:35:03;;;;;;;0.00;0.00;;;18.50;99.90;;;;;;5034018;28;20223;-74
2022/09/09 08:37:35;;;;;;;0.00;0.00;;;18.60;99.90;;;;;;5033358;28;20221;-76
2022/09/09 08:40:05;;;;;;;0.00;0.00;;;18.70;99.90;;;;;;5029413;28;20269;-74
2022/09/09 08:42:41;;;;;;;0.00;0.00;;;18.80;99.90;;;;;;5041110;28;20290;-76
2022/09/09 08:45:34;;;;;;;0.00;0.00;;;18.90;99.90;;;;;;5041155;28;20202;-73
2022/09/09 08:48:16;;;;;;;0.00;0.00;;;18.90;99.90;;;;;;5041510;28;20234;-74
2022/09/09 08:50:46;;;;;;;0.00;0.00;;;18.90;99.90;;;;;;5061154;28;20209;-74
2022/09/09 08:53:22;;;;;;;0.00;0.00;;;18.90;99.90;;;;;;5022032;28;20203;-74
2022/09/09 08:55:55;;;;;;;0.00;0.00;;;19.10;99.90;;;;;;5020797;28;20213;-74
2022/09/09 08:58:32;;;;;;;0.00;0.00;;;19.20;99.90;;;;;;5021659;28;20198;-76
2022/09/09 09:01:18;;;;;;;0.00;0.00;;;19.20;99.90;;;;;;5021620;28;20227;-73
2022/09/09 09:03:58;;;;;;;0.00;0.00;;;19.30;99.90;;;;;;5045849;28;20226;-74
2022/09/09 09:06:41;;;;;;;0.00;0.00;;;19.30;99.90;;;;;;5020721;28;20651;-74
2022/09/09 09:09:17;;;;;;;0.00;0.00;;;19.40;99.90;;;;;;5044543;28;20278;-75
2022/09/09 09:11:52;;;;;;;0.00;0.00;;;19.60;99.90;;;;;;5021525;28;20222;-73
2022/09/09 09:14:23;;;;;;;0.00;0.00;;;19.50;99.90;;;;;;5021701;28;20198;-73
2022/09/09 09:16:57;;;;;;;0.00;0.00;;;19.60;99.90;;;;;;5022177;28;20199;-74
2022/09/09 09:19:26;;;;;;;0.00;0.00;;;19.80;99.90;;;;;;5019914;28;20196;-73
2022/09/09 09:22:02;;;;;;;0.00;0.00;;;19.90;99.90;;;;;;5045083;28;20338;-73
2022/09/09 09:24:38;;;;;;;0.00;0.00;;;20.00;99.90;;;;;;5021482;28;20234;-75
2022/09/09 09:27:14;;;;;;;0.00;0.00;;;20.10;99.90;;;;;;5021592;28;20227;-73
2022/09/09 09:29:49;;;;;;;0.00;0.00;;;20.20;99.90;;;;;;5018693;28;20631;-74
2022/09/09 09:32:39;;;;;;;0.00;0.00;;;20.10;99.90;;;;;;5023000;28;20231;-72
2022/09/09 09:35:12;;;;;;;0.00;0.00;;;20.20;99.90;;;;;;5020909;28;20305;-73
2022/09/09 09:37:43;;;;;;;0.00;0.00;;;20.10;99.90;;;;;;5022517;28;20222;-72
2022/09/09 09:40:33;;;;;;;0.00;0.00;;;20.00;99.90;;;;;;5028478;28;20195;-72
2022/09/09 09:43:07;;;;;;;0.00;0.00;;;19.90;99.90;;;;;;5027723;28;20217;-72
2022/09/09 09:45:44;;;;;;;0.00;0.00;;;19.90;99.90;;;;;;5030146;28;20210;-71
2022/09/09 09:48:33;;;;;;;0.00;0.00;;;19.90;99.90;;;;;;5021970;28;20219;-71
2022/09/09 09:51:08;;;;;;;0.00;0.00;;;19.90;99.90;;;;;;5021490;28;20227;-71
2022/09/09 09:53:38;;;;;;;0.00;0.00;;;19.80;99.90;;;;;;5023687;28;20197;-71
2022/09/09 09:56:10;;;;;;;0.00;0.00;;;19.70;99.90;;;;;;5019813;28;20684;-71
2022/09/09 09:58:51;;;;;;;0.00;0.00;;;19.80;99.90;;;;;;5020981;28;20258;-72
2022/09/09 10:01:25;;;;;;;0.00;0.00;;;19.90;99.90;;;;;;5028792;28;20227;-72
2022/09/09 10:03:54;;;;;;;0.00;0.00;;;20.10;99.90;;;;;;5031351;28;20218;-72
2022/09/09 10:06:31;;;;;;;0.00;0.00;;;20.50;99.90;;;;;;5027974;28;20202;-73
2022/09/09 10:08:59;;;;;;;0.00;0.00;;;20.80;99.90;;;;;;5025378;28;20575;-72
2022/09/09 10:11:39;;;;;;;0.00;0.00;;;21.00;99.90;;;;;;5022392;28;20250;-71
2022/09/09 10:14:17;;;;;;;0.00;0.00;;;21.20;99.90;;;;;;5021121;28;20249;-74
2022/09/09 10:16:57;;;;;;;0.00;0.00;;;21.30;99.90;;;;;;5021427;28;20203;-74
2022/09/09 10:19:32;;;;;;;0.00;0.00;;;21.10;99.90;;;;;;5020642;28;20261;-73
2022/09/09 10:22:17;;;;;;;0.00;0.00;;;21.20;99.90;;;;;;5021923;28;20291;-74
2022/09/09 10:25:05;;;;;;;0.00;0.00;;;21.20;99.90;;;;;;5019794;28;20212;-75
2022/09/09 10:27:44;;;;;;;0.00;0.00;;;21.40;99.90;;;;;;5022069;28;20223;-74
2022/09/09 10:30:17;;;;;;;0.00;0.00;;;21.40;99.90;;;;;;5021732;28;20294;-74
2022/09/09 10:32:51;;;;;;;0.00;0.00;;;21.20;99.90;;;;;;5023050;28;20219;-74
2022/09/09 10:35:27;;;;;;;0.00;0.00;;;21.20;99.90;;;;;;5020469;28;20207;-73
2022/09/09 10:38:17;;;;;;;0.00;0.00;;;21.20;99.90;;;;;;5022244;28;20206;-73
2022/09/09 10:41:01;;;;;;;0.00;0.00;;;21.60;99.90;;;;;;5020897;28;20211;-74
2022/09/09 10:43:46;;;;;;;0.00;0.00;;;21.90;99.90;;;;;;5021437;28;20257;-73
2022/09/09 10:46:27;;;;;;;0.00;0.00;;;22.10;99.90;;;;;;5022429;28;20243;-74
2022/09/09 10:49:08;;;;;;;0.00;0.00;;;22.30;99.90;;;;;;5021437;28;20736;-74
2022/09/09 10:51:47;;;;;;;0.00;0.00;;;22.60;99.90;;;;;;5019540;28;20222;-75
2022/09/09 10:54:29;;;;;;;0.00;0.00;;;22.60;99.90;;;;;;5020694;28;20290;-74
2022/09/09 10:57:03;;;;;;;0.00;0.00;;;22.50;99.90;;;;;;5020577;28;20206;-74
2022/09/09 10:59:37;;;;;;;0.00;0.00;;;22.20;99.90;;;;;;5021175;28;20211;-74
2022/09/09 11:02:17;;;;;;;0.00;0.00;;;22.50;99.90;;;;;;5020590;28;20262;-74
2022/09/09 11:04:50;;;;;;;0.00;0.00;;;22.10;99.90;;;;;;5020582;28;20237;-74
2022/09/09 11:07:26;;;;;;;0.00;0.00;;;22.30;99.90;;;;;;5021664;28;20761;-76
2022/09/09 11:10:00;;;;;;;0.00;0.00;;;22.10;99.90;;;;;;5019242;28;20272;-73
2022/09/09 11:12:29;;;;;;;0.00;0.00;;;22.40;99.90;;;;;;5019958;28;20559;-74
2022/09/09 11:15:05;;;;;;;0.00;0.00;;;22.40;99.90;;;;;;5019971;28;20265;-74
2022/09/09 11:17:40;;;;;;;0.00;0.00;;;22.70;99.90;;;;;;5021120;28;20668;-74
2022/09/09 11:20:13;;;;;;;0.00;0.00;;;22.80;99.90;;;;;;5021027;28;20203;-74
2022/09/09 11:22:49;;;;;;;0.00;0.00;;;23.00;99.90;;;;;;5019852;28;20274;-74
2022/09/09 11:25:20;;;;;;;0.00;0.00;;;23.00;99.90;;;;;;5020322;28;20203;-74
2022/09/09 11:28:04;;;;;;;0.00;0.00;;;23.00;99.90;;;;;;5020694;28;20249;-74
2022/09/09 11:30:43;;;;;;;0.00;0.00;;;23.40;99.90;;;;;;5020988;28;20630;-74
2022/09/09 11:33:50;;;;;;;0.00;0.00;;;23.60;99.90;;;;;;5020984;28;20215;-74
2022/09/09 11:36:42;;;;;;;0.00;0.00;;;24.00;99.90;;;;;;5020513;28;20207;-74
2022/09/09 11:39:31;;;;;;;0.00;0.00;;;23.80;99.90;;;;;;5021185;28;20207;-74
2022/09/09 11:42:17;;;;;;;0.00;0.00;;;23.60;99.90;;;;;;5021007;28;20243;-74
2022/09/09 11:44:51;;;;;;;0.00;0.00;;;23.60;99.90;;;;;;5020856;28;20200;-75
2022/09/09 11:47:28;;;;;;;0.00;0.00;;;23.50;99.90;;;;;;5022972;28;20208;-74
2022/09/09 11:50:27;;;;;;;0.00;0.00;;;23.70;99.90;;;;;;5023231;28;20198;-74
2022/09/09 11:53:22;;;;;;;0.00;0.00;;;24.00;99.90;;;;;;5021926;28;21141;-74
2022/09/09 11:56:10;;;;;;;0.00;0.00;;;23.90;99.90;;;;;;5019436;28;20722;-75
2022/09/09 11:58:42;;;;;;;0.00;0.00;;;23.90;99.90;;;;;;5020337;28;20253;-73
2022/09/09 12:01:27;;;;;;;0.00;0.00;;;24.10;99.90;;;;;;5043868;22;20238;-74
2022/09/09 12:04:08;;;;;;;0.00;0.00;;;23.90;99.90;;;;;;5012400;28;20203;-74
2022/09/09 12:06:46;;;;;;;0.00;0.00;;;24.00;99.90;;;;;;5016346;28;20674;-74
2022/09/09 12:09:23;;;;;;;0.00;0.00;;;23.90;99.90;;;;;;5015321;28;20278;-73
2022/09/09 12:11:51;;;;;;;0.00;0.00;;;24.00;99.90;;;;;;5009856;28;20281;-72
2022/09/09 12:14:22;;;;;;;0.00;0.00;;;24.10;99.90;;;;;;5013956;28;20266;-75
2022/09/09 12:16:50;;;;;;;0.00;0.00;;;24.10;99.90;;;;;;5012625;28;20223;-73
2022/09/09 12:19:21;;;;;;;0.00;0.00;;;23.90;99.90;;;;;;5013061;28;20290;-72
2022/09/09 12:22:04;;;;;;;0.00;0.00;;;24.00;99.90;;;;;;5013629;28;20629;-73
2022/09/09 12:24:38;;;;;;;0.00;0.00;;;24.10;99.90;;;;;;5009326;28;20199;-72
2022/09/09 12:27:15;;;;;;;0.00;0.00;;;24.10;99.90;;;;;;5011970;28;20207;-73
2022/09/09 12:29:50;;;;;;;0.00;0.00;;;24.10;99.90;;;;;;5010783;28;20223;-74
2022/09/09 12:32:23;;;;;;;0.00;0.00;;;24.30;99.90;;;;;;5013655;28;20721;-73
2022/09/09 12:34:55;;;;;;;0.00;0.00;;;24.60;99.90;;;;;;5013546;28;20199;-73
2022/09/09 12:37:30;;;;;;;0.00;0.00;;;24.50;99.90;;;;;;5012379;28;20277;-72
2022/09/09 12:39:59;;;;;;;0.00;0.00;;;24.60;99.90;;;;;;5012089;28;20666;-72
2022/09/09 12:42:28;;;;;;;0.00;0.00;;;24.30;99.90;;;;;;5007704;28;20246;-72
2022/09/09 12:44:57;;;;;;;0.00;0.00;;;24.50;99.90;;;;;;5012377;28;20207;-72
2022/09/09 12:47:40;;;;;;;0.00;0.00;;;24.30;99.90;;;;;;5012223;28;20230;-72
2022/09/09 12:50:17;;;;;;;0.00;0.00;;;24.20;99.90;;;;;;5012764;28;20262;-72
2022/09/09 12:52:47;;;;;;;0.00;0.00;;;24.20;99.90;;;;;;5013166;28;20709;-72
2022/09/09 12:55:20;;;;;;;0.00;0.00;;;24.30;99.90;;;;;;5012347;28;20274;-72
2022/09/09 12:57:49;;;;;;;0.00;0.00;;;24.40;99.90;;;;;;5011397;28;20245;-72
2022/09/09 13:00:20;;;;;;;0.00;0.00;;;24.60;99.90;;;;;;5012164;28;20231;-72
2022/09/09 13:02:51;;;;;;;0.00;0.00;;;24.70;99.90;;;;;;5011701;28;20236;-72
2022/09/09 13:05:23;;;;;;;0.00;0.00;;;24.50;99.90;;;;;;5010952;28;20246;-72
2022/09/09 13:07:52;;;;;;;0.00;0.00;;;23.90;99.90;;;;;;5011447;28;20200;-72
2022/09/09 13:10:27;;;;;;;0.00;0.00;;;23.80;99.90;;;;;;5012016;28;20278;-72
2022/09/09 13:13:14;;;;;;;0.00;0.00;;;24.00;99.90;;;;;;5009950;28;20626;-75
2022/09/09 13:15:50;;;;;;;0.00;0.00;;;24.10;99.80;;;;;;5010675;28;20206;-75
2022/09/09 13:18:22;;;;;;;0.00;0.00;;;24.30;99.90;;;;;;5011836;28;20720;-75
2022/09/09 13:20:51;;;;;;;0.00;0.00;;;24.30;99.90;;;;;;5012940;28;20195;-75
2022/09/09 13:23:22;;;;;;;0.00;0.00;;;24.30;99.90;;;;;;5012127;28;20273;-75